Time;durP1;ratioP1;P1;durP2;ratioP2;P2;SDS_P1;SDS_P2;PMS_P1;PMS_P2;Temp;Humidity;BMP_temperature;BMP_pressure;BME280_temperature;BME280_humidity;BME280_pressure;Samples;Min_cycle;Max_cycle;Signal;HPM_P1;HPM_P2
2022/05/04 00:01:47;;;;;;;1.03;1.03;;;;;;;;;;5050066;28;20544;-67
2022/05/04 00:04:13;;;;;;;0.75;0.75;;;;;;;;;;5050622;28;20654;-67
2022/05/04 00:06:39;;;;;;;0.67;0.67;;;;;;;;;;5050783;28;20187;-67
2022/05/04 00:09:05;;;;;;;0.83;0.83;;;;;;;;;;5050694;28;20899;-68
2022/05/04 00:11:31;;;;;;;1.10;1.10;;;;;;;;;;5050416;28;20465;-67
2022/05/04 00:13:57;;;;;;;0.70;0.70;;;;;;;;;;5050689;28;20922;-67
2022/05/04 00:16:23;;;;;;;1.10;1.10;;;;;;;;;;5050092;28;20453;-66
2022/05/04 00:18:49;;;;;;;1.07;1.07;;;;;;;;;;5050362;28;21118;-67
2022/05/04 00:21:15;;;;;;;0.90;0.90;;;;;;;;;;5050229;28;20703;-67
2022/05/04 00:23:41;;;;;;;0.77;0.77;;;;;;;;;;5050311;28;20253;-67
2022/05/04 00:26:06;;;;;;;0.80;0.80;;;22.40;72.70;;;;;;5050007;28;20399;-67
2022/05/04 00:28:32;;;;;;;0.65;0.65;;;22.40;83.10;;;;;;5049880;28;21011;-67
2022/05/04 00:30:58;;;;;;;0.80;0.80;;;;;;;;;;5049687;28;20212;-67
2022/05/04 00:33:24;;;;;;;0.77;0.77;;;;;;;;;;5050240;28;20208;-67
2022/05/04 00:35:50;;;;;;;0.60;0.60;;;;;;;;;;5049807;28;20399;-68
2022/05/04 00:38:15;;;;;;;0.83;0.83;;;;;;;;;;5050075;28;20168;-68
2022/05/04 00:40:41;;;;;;;0.80;0.80;;;;;;;;;;5049631;28;20191;-66
2022/05/04 00:43:24;;;;;;;0.70;0.70;;;22.30;53.30;;;;;;5050070;28;20441;-67
2022/05/04 00:45:51;;;;;;;0.80;0.80;;;;;;;;;;5049727;28;20285;-67
2022/05/04 00:48:16;;;;;;;0.75;0.75;;;;;;;;;;5049856;28;20888;-67
2022/05/04 00:50:43;;;;;;;0.97;0.93;;;;;;;;;;5049428;28;20214;-67
2022/05/04 00:53:09;;;;;;;1.63;1.13;;;;;;;;;;5049211;28;20536;-67
2022/05/04 00:55:35;;;;;;;0.67;0.67;;;22.20;55.50;;;;;;5049402;28;20486;-67
2022/05/04 01:00:48;;;;;;;0.70;0.70;;;22.30;64.70;;;;;;5049599;28;20426;-67
2022/05/04 01:03:14;;;;;;;0.83;0.83;;;;;;;;;;5049709;28;20417;-67
2022/05/04 01:05:40;;;;;;;0.80;0.80;;;;;;;;;;5049368;28;20406;-67
2022/05/04 01:08:06;;;;;;;0.75;0.75;;;;;;;;;;5049563;28;20403;-67
2022/05/04 01:10:32;;;;;;;0.93;0.93;;;;;;;;;;5049168;28;20207;-67
2022/05/04 01:12:58;;;;;;;1.10;0.97;;;;;;;;;;5049619;28;20485;-66
2022/05/04 01:15:24;;;;;;;0.80;0.80;;;;;;;;;;5049563;28;20844;-67
2022/05/04 01:17:50;;;;;;;0.90;0.90;;;22.40;72.30;;;;;;5049197;28;20422;-67
2022/05/04 01:20:17;;;;;;;0.80;0.80;;;22.20;57.60;;;;;;5048776;28;20446;-67
2022/05/04 01:22:43;;;;;;;1.00;0.80;;;;;;;;;;5049296;28;20806;-68
2022/05/04 01:25:11;;;;;;;0.80;0.80;;;22.20;57.60;;;;;;5049131;28;20418;-68
2022/05/04 01:27:37;;;;;;;0.90;0.90;;;;;;;;;;5045472;28;20426;-67
2022/05/04 01:30:04;;;;;;;1.10;1.10;;;22.30;63.80;;;;;;5048684;28;21196;-67
2022/05/04 01:32:30;;;;;;;0.70;0.70;;;;;;;;;;5049117;28;20464;-67
2022/05/04 01:34:56;;;;;;;1.20;1.10;;;;;;;;;;5049196;28;20555;-68
2022/05/04 01:37:22;;;;;;;0.80;0.80;;;;;;;;;;5049093;28;20398;-67
2022/05/04 01:39:48;;;;;;;0.93;0.93;;;;;;;;;;5049043;28;20494;-67
2022/05/04 01:42:16;;;;;;;0.60;0.60;;;;;;;;;;5049246;28;20777;-67
2022/05/04 01:44:43;;;;;;;0.73;0.73;;;21.90;65.80;;;;;;5049229;28;20406;-68
2022/05/04 01:47:09;;;;;;;0.85;0.85;;;;;;;;;;5048738;28;20434;-67
2022/05/04 01:49:36;;;;;;;1.43;0.90;;;22.70;57.80;;;;;;5049188;28;20702;-67
2022/05/04 01:52:02;;;;;;;1.00;1.00;;;;;;;;;;5048794;28;20426;-67
2022/05/04 01:54:28;;;;;;;0.80;0.80;;;;;;;;;;5049204;28;20476;-67
2022/05/04 01:56:54;;;;;;;0.70;0.70;;;;;;;;;;5048932;28;20407;-68
2022/05/04 01:59:20;;;;;;;0.80;0.80;;;;;;;;;;5048730;28;20456;-67
2022/05/04 02:01:47;;;;;;;0.82;0.82;;;22.30;55.50;;;;;;5048874;28;20487;-67
2022/05/04 02:04:13;;;;;;;0.73;0.73;;;22.30;84.50;;;;;;5050967;28;20782;-68
2022/05/04 02:06:39;;;;;;;0.60;0.60;;;22.00;64.10;;;;;;5052810;28;20497;-67
2022/05/04 02:09:06;;;;;;;0.70;0.70;;;;;;;;;;5052731;28;20552;-67
2022/05/04 02:11:33;;;;;;;0.80;0.80;;;22.20;56.90;;;;;;5052470;28;20421;-66
2022/05/04 02:14:03;;;;;;;0.90;0.90;;;22.20;60.30;;;;;;5052781;28;20485;-67
2022/05/04 02:16:29;;;;;;;0.63;0.63;;;;;;;;;;5052502;28;20461;-67
2022/05/04 02:18:55;;;;;;;0.77;0.77;;;;;;;;;;5052502;28;20208;-68
2022/05/04 02:21:21;;;;;;;0.80;0.80;;;;;;;;;;5052373;28;20422;-68
2022/05/04 02:23:47;;;;;;;1.33;0.80;;;;;;;;;;5052380;28;20413;-67
2022/05/04 02:26:13;;;;;;;0.90;0.90;;;;;;;;;;5051998;28;20176;-67
2022/05/04 02:28:39;;;;;;;0.80;0.77;;;;;;;;;;5051522;28;20499;-67
2022/05/04 02:31:05;;;;;;;1.23;1.00;;;;;;;;;;5044124;28;20641;-67
2022/05/04 02:33:31;;;;;;;0.83;0.83;;;;;;;;;;5052236;28;20764;-67
2022/05/04 02:38:41;;;;;;;0.80;0.80;;;;;;;;;;5051815;28;20452;-68
2022/05/04 02:41:07;;;;;;;0.80;0.80;;;;;;;;;;5051945;28;20243;-67
2022/05/04 02:43:33;;;;;;;1.73;0.90;;;;;;;;;;5051824;28;20410;-67
2022/05/04 02:46:12;;;;;;;0.90;0.90;;;22.90;58.10;;;;;;5051778;28;20925;-67
2022/05/04 02:48:38;;;;;;;0.97;0.97;;;;;;;;;;5051871;28;20499;-67
2022/05/04 02:51:04;;;;;;;0.60;0.60;;;;;;;;;;5051848;28;20437;-67
2022/05/04 02:53:30;;;;;;;0.70;0.70;;;;;;;;;;5051647;28;20418;-67
2022/05/04 02:55:56;;;;;;;1.10;1.00;;;;;;;;;;5051380;28;20922;-67
2022/05/04 02:58:22;;;;;;;0.93;0.93;;;;;;;;;;5051523;28;20430;-67
2022/05/04 03:00:48;;;;;;;0.77;0.77;;;;;;;;;;5051652;28;20855;-67
2022/05/04 03:03:14;;;;;;;0.57;0.57;;;;;;;;;;5051663;28;20179;-67
2022/05/04 03:05:40;;;;;;;0.70;0.70;;;;;;;;;;5051577;28;20464;-66
2022/05/04 03:08:06;;;;;;;0.70;0.70;;;;;;;;;;5051513;28;20183;-67
2022/05/04 03:11:54;;;;;;;0.80;0.80;;;;;;;;;;5051441;28;20561;-67
2022/05/04 03:13:18;;;;;;;0.93;0.93;;;;;;;;;;5051385;28;20513;-67
2022/05/04 03:15:44;;;;;;;0.70;0.70;;;;;;;;;;5050725;28;20656;-66
2022/05/04 03:18:10;;;;;;;0.70;0.70;;;;;;;;;;5050827;28;20487;-67
2022/05/04 03:20:35;;;;;;;0.80;0.80;;;;;;;;;;5051064;28;20414;-67
2022/05/04 03:23:01;;;;;;;0.60;0.60;;;;;;;;;;5051275;28;20418;-67
2022/05/04 03:25:27;;;;;;;0.90;0.90;;;;;;;;;;5051192;28;20180;-68
2022/05/04 03:27:53;;;;;;;0.80;0.80;;;;;;;;;;5051004;28;20887;-67
2022/05/04 03:30:19;;;;;;;0.60;0.60;;;22.10;66.30;;;;;;5050985;28;20954;-67
2022/05/04 03:32:45;;;;;;;0.70;0.70;;;;;;;;;;5050549;28;20180;-67
2022/05/04 03:35:11;;;;;;;0.77;0.70;;;22.30;67.50;;;;;;5050833;28;20246;-67
2022/05/04 03:37:37;;;;;;;0.80;0.80;;;;;;;;;;5050881;28;20179;-67
2022/05/04 03:40:03;;;;;;;0.70;0.70;;;;;;;;;;5050919;28;20592;-67
2022/05/04 03:42:29;;;;;;;0.80;0.80;;;;;;;;;;5051045;28;20180;-67
2022/05/04 03:44:56;;;;;;;0.60;0.60;;;;;;;;;;5051109;28;20413;-67
2022/05/04 03:47:22;;;;;;;0.70;0.70;;;;;;;;;;5046532;28;20900;-67
2022/05/04 03:49:48;;;;;;;1.37;0.80;;;;;;;;;;5045356;28;20470;-67
2022/05/04 03:52:14;;;;;;;1.00;1.00;;;;;;;;;;5050274;28;20422;-68
2022/05/04 03:54:40;;;;;;;1.37;1.27;;;;;;;;;;5050556;28;20442;-67
2022/05/04 03:57:06;;;;;;;1.30;1.30;;;;;;;;;;5050151;28;20434;-67
2022/05/04 03:59:32;;;;;;;1.07;1.07;;;;;;;;;;5050144;28;20450;-67
2022/05/04 04:01:58;;;;;;;1.20;1.20;;;;;;;;;;5048544;28;20422;-67
2022/05/04 04:04:24;;;;;;;1.30;1.20;;;;;;;;;;5047593;28;20502;-68
2022/05/04 04:06:50;;;;;;;1.20;1.20;;;;;;;;;;5044364;28;20446;-67
2022/05/04 04:09:16;;;;;;;1.50;1.43;;;;;;;;;;5049998;28;20212;-68
2022/05/04 04:11:42;;;;;;;1.60;1.50;;;;;;;;;;5050160;28;20418;-68
2022/05/04 04:14:09;;;;;;;1.40;1.37;;;;;;;;;;5050095;28;20423;-67
2022/05/04 04:16:35;;;;;;;1.47;1.37;;;;;;;;;;5049713;28;20925;-67
2022/05/04 04:19:01;;;;;;;1.50;1.50;;;;;;;;;;5038476;28;20865;-68
2022/05/04 04:24:12;;;;;;;1.13;1.13;;;;;;;;;;5047526;28;20190;-67
2022/05/04 04:26:38;;;;;;;2.03;1.20;;;;;;;;;;5046896;28;20776;-67
2022/05/04 04:29:05;;;;;;;1.10;1.10;;;;;;;;;;5049432;28;20200;-67
2022/05/04 04:31:31;;;;;;;1.17;1.17;;;;;;;;;;5049234;28;20433;-67
2022/05/04 04:33:57;;;;;;;1.90;1.80;;;;;;;;;;5050019;28;20475;-67
2022/05/04 04:36:23;;;;;;;1.07;1.00;;;;;;;;;;5049739;28;21046;-67
2022/05/04 04:38:49;;;;;;;3.17;1.63;;;;;;;;;;5050103;28;20986;-66
2022/05/04 04:41:15;;;;;;;1.40;1.23;;;;;;;;;;5049873;28;20719;-66
2022/05/04 04:43:41;;;;;;;2.00;1.40;;;;;;;;;;5050000;28;20415;-67
2022/05/04 04:46:06;;;;;;;1.40;1.30;;;;;;;;;;5049561;28;20406;-67
2022/05/04 04:48:32;;;;;;;1.43;1.43;;;;;;;;;;5049561;28;20434;-67
2022/05/04 04:50:58;;;;;;;2.37;1.33;;;;;;;;;;5049711;28;20796;-67
2022/05/04 04:53:25;;;;;;;1.37;1.13;;;;;;;;;;5048343;28;20469;-67
2022/05/04 04:55:50;;;;;;;2.10;1.40;;;;;;;;;;5049433;28;20403;-67
2022/05/04 04:58:16;;;;;;;0.90;0.90;;;;;;;;;;5049551;28;20411;-67
2022/05/04 05:00:42;;;;;;;1.37;1.27;;;;;;;;;;5049456;28;20548;-67
2022/05/04 05:03:08;;;;;;;1.10;1.10;;;;;;;;;;5049732;28;20418;-67
2022/05/04 05:05:35;;;;;;;1.30;1.30;;;;;;;;;;5048971;28;20261;-67
2022/05/04 05:08:01;;;;;;;1.37;1.37;;;;;;;;;;5049706;28;20407;-67
2022/05/04 05:10:27;;;;;;;1.50;1.27;;;22.00;86.80;;;;;;5048842;28;20454;-67
2022/05/04 05:12:53;;;;;;;1.10;1.10;;;;;;;;;;5049855;28;20582;-67
2022/05/04 05:18:04;;;;;;;1.33;1.23;;;21.80;68.40;;;;;;5049331;28;20437;-66
2022/05/04 05:20:33;;;;;;;1.70;1.20;;;;;;;;;;5049166;28;20575;-66
2022/05/04 05:23:00;;;;;;;4.10;1.57;;;22.00;63.20;;;;;;5049252;28;20486;-66
2022/05/04 05:25:26;;;;;;;1.77;1.20;;;;;;;;;;5049162;28;20441;-66
2022/05/04 05:27:52;;;;;;;0.90;0.90;;;;;;;;;;5049008;28;20410;-67
2022/05/04 05:30:18;;;;;;;1.00;1.00;;;;;;;;;;5048907;28;20465;-66
2022/05/04 05:32:44;;;;;;;0.90;0.90;;;;;;;;;;5049257;28;20399;-67
2022/05/04 05:35:10;;;;;;;1.10;1.10;;;22.10;70.20;;;;;;5049296;28;20482;-66
2022/05/04 05:37:36;;;;;;;1.37;1.30;;;;;;;;;;5049823;28;20175;-66
2022/05/04 05:40:02;;;;;;;1.10;1.10;;;;;;;;;;5053127;28;20930;-67
2022/05/04 05:42:28;;;;;;;0.93;0.93;;;;;;;;;;5052792;28;20414;-67
2022/05/04 05:44:54;;;;;;;0.87;0.87;;;;;;;;;;5053411;28;20406;-66
2022/05/04 05:47:20;;;;;;;1.00;0.93;;;;;;;;;;5053108;28;20493;-66
2022/05/04 05:49:46;;;;;;;0.97;0.97;;;;;;;;;;5053185;28;20569;-66
2022/05/04 05:52:12;;;;;;;0.93;0.93;;;;;;;;;;5053308;28;20664;-66
2022/05/04 05:54:38;;;;;;;1.45;1.15;;;;;;;;;;5053113;28;20704;-66
2022/05/04 05:57:04;;;;;;;1.10;1.00;;;;;;;;;;5052802;28;20175;-66
2022/05/04 05:59:30;;;;;;;1.53;1.40;;;;;;;;;;5052879;28;20855;-66
2022/05/04 06:01:56;;;;;;;3.00;1.67;;;;;;;;;;5052994;28;20502;-66
2022/05/04 06:04:22;;;;;;;2.40;1.10;;;22.20;78.60;;;;;;5052890;28;20426;-66
2022/05/04 06:06:48;;;;;;;1.47;1.27;;;;;;;;;;5052592;28;20450;-67
2022/05/04 06:09:14;;;;;;;0.90;0.90;;;;;;;;;;5052716;28;20298;-67
2022/05/04 06:11:40;;;;;;;1.37;1.30;;;;;;;;;;5052707;28;20425;-67
2022/05/04 06:14:05;;;;;;;1.17;1.17;;;;;;;;;;5052792;28;20493;-65
2022/05/04 06:16:31;;;;;;;1.67;1.10;;;;;;;;;;5052663;28;20409;-66
2022/05/04 06:18:57;;;;;;;1.90;1.13;;;;;;;;;;5052786;28;20457;-66
2022/05/04 06:21:23;;;;;;;0.93;0.93;;;;;;;;;;5052815;28;20184;-66
2022/05/04 06:23:49;;;;;;;1.90;1.80;;;;;;;;;;5052737;28;20753;-66
2022/05/04 06:26:20;;;;;;;1.27;1.17;;;;;;;;;;5052214;28;20410;-66
2022/05/04 06:28:46;;;;;;;2.40;1.23;;;;;;;;;;5052477;28;20200;-66
2022/05/04 06:34:10;;;;;;;1.20;1.00;;;;;;;;;;5052460;28;20190;-67
2022/05/04 06:36:37;;;;;;;1.07;0.97;;;;;;;;;;5052139;28;20903;-67
2022/05/04 06:39:03;;;;;;;0.87;0.87;;;;;;;;;;5052445;28;20426;-66
2022/05/04 06:41:29;;;;;;;1.17;1.07;;;;;;;;;;5052445;28;20402;-66
2022/05/04 06:43:55;;;;;;;0.90;0.90;;;;;;;;;;5052531;28;20891;-67
2022/05/04 06:46:21;;;;;;;0.80;0.80;;;;;;;;;;5052253;28;20481;-67
2022/05/04 06:48:47;;;;;;;1.43;1.40;;;;;;;;;;5052128;28;20269;-66
2022/05/04 06:51:12;;;;;;;1.35;1.02;;;;;;;;;;5051722;28;21068;-66
2022/05/04 06:53:38;;;;;;;1.00;0.93;;;;;;;;;;5051914;28;20577;-66
2022/05/04 06:56:04;;;;;;;1.67;0.83;;;;;;;;;;5051601;28;20258;-66
2022/05/04 06:58:30;;;;;;;0.90;0.90;;;;;;;;;;5051753;28;20796;-67
2022/05/04 07:00:56;;;;;;;1.67;1.03;;;;;;;;;;5051748;28;20471;-66
2022/05/04 07:03:22;;;;;;;1.55;1.45;;;;;;;;;;5051749;28;20823;-67
2022/05/04 07:05:49;;;;;;;2.30;1.40;;;22.20;64.10;;;;;;5051457;28;20179;-66
2022/05/04 07:08:15;;;;;;;1.40;0.87;;;21.90;58.50;;;;;;5051763;28;20445;-66
2022/05/04 07:10:41;;;;;;;1.30;1.20;;;;;;;;;;5051582;28;20481;-66
2022/05/04 07:13:06;;;;;;;0.80;0.80;;;22.30;84.50;;;;;;5051633;28;20204;-67
2022/05/04 07:15:32;;;;;;;1.60;1.50;;;22.20;72.10;;;;;;5051614;28;20410;-67
2022/05/04 07:17:58;;;;;;;6.63;1.30;;;22.20;86.70;;;;;;5051694;28;20184;-67
2022/05/04 07:20:24;;;;;;;1.10;1.10;;;;;;;;;;5051506;28;20466;-67
2022/05/04 07:22:50;;;;;;;1.40;1.40;;;;;;;;;;5051984;28;20497;-67
2022/05/04 07:25:16;;;;;;;1.17;1.07;;;;;;;;;;5051531;28;20403;-66
2022/05/04 07:27:42;;;;;;;1.20;1.20;;;;;;;;;;5051404;28;20407;-66
2022/05/04 07:30:09;;;;;;;1.10;1.10;;;;;;;;;;5050801;28;20495;-68
2022/05/04 07:32:35;;;;;;;1.20;1.13;;;;;;;;;;5051216;28;20410;-66
2022/05/04 07:35:01;;;;;;;0.90;0.90;;;22.10;66.90;;;;;;5050638;28;20502;-67
2022/05/04 07:37:27;;;;;;;1.10;1.10;;;;;;;;;;5051130;28;20506;-66
2022/05/04 07:42:39;;;;;;;1.03;1.03;;;22.30;71.10;;;;;;5051344;28;20406;-66
2022/05/04 07:45:12;;;;;;;0.80;0.80;;;22.10;57.90;;;;;;5051348;28;20775;-67
2022/05/04 07:47:39;;;;;;;0.77;0.77;;;22.20;58.10;;;;;;5050927;28;20426;-66
2022/05/04 07:50:07;;;;;;;0.60;0.60;;;22.10;58.20;;;;;;5050591;28;20482;-67
2022/05/04 07:52:33;;;;;;;1.00;1.00;;;;;;;;;;5050724;28;20426;-67
2022/05/04 07:54:59;;;;;;;1.00;1.00;;;;;;;;;;5050832;28;20726;-67
2022/05/04 07:57:25;;;;;;;0.87;0.87;;;;;;;;;;5050515;28;20406;-67
2022/05/04 08:05:24;;;;;;;0.80;0.80;;;22.20;61.10;;;;;;5050961;28;20897;-66
2022/05/04 08:07:50;;;;;;;2.10;0.83;;;;;;;;;;5050647;28;20538;-66
2022/05/04 08:10:17;;;;;;;1.07;1.03;;;;;;;;;;5050391;28;20473;-67
2022/05/04 08:12:42;;;;;;;0.80;0.80;;;22.00;86.30;;;;;;5050630;28;20896;-67
2022/05/04 08:15:08;;;;;;;16.90;15.33;;;22.20;71.00;;;;;;5050674;28;20423;-66
2022/05/04 08:17:34;;;;;;;0.73;0.73;;;;;;;;;;5050104;28;20184;-67
2022/05/04 08:20:00;;;;;;;2.17;2.08;;;;;;;;;;5050429;28;20438;-67
2022/05/04 08:22:26;;;;;;;1.10;1.00;;;24.50;57.20;;;;;;5050380;28;20168;-67
2022/05/04 08:24:52;;;;;;;1.07;1.07;;;;;;;;;;5050061;28;20417;-67
2022/05/04 08:27:19;;;;;;;1.93;1.50;;;;;;;;;;5049828;28;21162;-67
2022/05/04 08:29:45;;;;;;;1.03;1.00;;;;;;;;;;5049995;28;20469;-66
2022/05/04 08:32:11;;;;;;;1.43;0.87;;;;;;;;;;5050239;28;20586;-66
2022/05/04 08:34:37;;;;;;;1.27;0.93;;;;;;;;;;5050180;28;20402;-66
2022/05/04 08:37:03;;;;;;;1.00;1.00;;;;;;;;;;5049771;28;20178;-66
2022/05/04 08:39:29;;;;;;;0.87;0.87;;;22.30;84.80;;;;;;5049874;28;20431;-66
2022/05/04 08:41:54;;;;;;;1.53;0.83;;;22.20;62.60;;;;;;5049833;28;20419;-67
2022/05/04 08:44:20;;;;;;;1.10;1.00;;;;;;;;;;5049870;28;20183;-66
2022/05/04 08:46:46;;;;;;;1.37;0.90;;;;;;;;;;5049810;28;20184;-66
2022/05/04 08:49:13;;;;;;;2.00;0.83;;;;;;;;;;5049725;28;20465;-67
2022/05/04 08:51:39;;;;;;;1.10;1.00;;;22.30;60.50;;;;;;5049936;28;20414;-67
2022/05/04 08:54:08;;;;;;;1.00;1.00;;;22.20;58.10;;;;;;5049849;28;20766;-67
2022/05/04 08:56:34;;;;;;;0.87;0.87;;;21.70;63.70;;;;;;5049417;28;20489;-66
2022/05/04 08:59:07;;;;;;;0.98;0.98;;;22.20;53.50;;;;;;5049523;28;20886;-66
2022/05/04 09:01:37;;;;;;;1.30;1.17;;;21.10;57.90;;;;;;5049626;28;20195;-66
2022/05/04 09:04:03;;;;;;;1.13;1.13;;;;;;;;;;5049830;28;20410;-67
2022/05/04 09:06:31;;;;;;;2.00;1.90;;;22.20;58.00;;;;;;5049352;28;20520;-67
2022/05/04 09:09:03;;;;;;;0.70;0.70;;;22.40;67.30;;;;;;5049132;28;20566;-67
2022/05/04 09:11:29;;;;;;;1.80;1.80;;;;;;;;;;5049346;28;20406;-66
2022/05/04 09:13:55;;;;;;;5.27;4.87;;;;;;;;;;5049013;28;20580;-66
2022/05/04 09:16:25;;;;;;;0.60;0.60;;;22.20;59.30;;;;;;5049112;28;20403;-66
2022/05/04 09:18:50;;;;;;;0.60;0.60;;;;;;;;;;5049220;28;20481;-67
2022/05/04 09:21:23;;;;;;;0.80;0.63;;;22.30;55.10;;;;;;5049346;28;20442;-67
2022/05/04 09:23:52;;;;;;;0.90;0.90;;;22.20;53.60;;;;;;5049188;28;20860;-67
2022/05/04 09:26:20;;;;;;;1.00;1.00;;;22.30;66.40;;;;;;5048816;28;20402;-66
2022/05/04 09:28:50;;;;;;;0.80;0.80;;;22.30;61.10;;;;;;5048916;28;20422;-67
2022/05/04 09:31:18;;;;;;;1.07;1.03;;;;;;;;;;5049108;28;20176;-67
2022/05/04 09:33:53;;;;;;;0.70;0.70;;;22.30;58.30;;;;;;5048891;28;20412;-67
2022/05/04 09:36:36;;;;;;;0.90;0.90;;;22.10;58.20;;;;;;5048857;28;20410;-67
2022/05/04 09:44:54;;;;;;;1.00;1.00;;;;;;;;;;5049423;28;20483;-66
2022/05/04 09:47:20;;;;;;;1.27;1.23;;;23.00;62.70;;;;;;5048831;28;20406;-67
2022/05/04 09:49:50;;;;;;;0.90;0.90;;;22.30;53.30;;;;;;5048890;28;20465;-68
2022/05/04 09:52:22;;;;;;;1.00;0.90;;;22.30;57.20;;;;;;5049134;28;20503;-66
2022/05/04 09:54:47;;;;;;;0.90;0.90;;;21.90;62.20;;;;;;5048958;28;20409;-67
2022/05/04 09:57:14;;;;;;;0.70;0.70;;;;;;;;;;5048668;28;20407;-66
2022/05/04 09:59:42;;;;;;;0.60;0.60;;;22.00;57.30;;;;;;5048780;28;20237;-67
2022/05/04 10:02:09;;;;;;;1.00;1.00;;;;;;;;;;5048869;28;20445;-67
2022/05/04 10:04:36;;;;;;;0.77;0.77;;;;;;;;;;5048906;28;20450;-67
2022/05/04 10:07:03;;;;;;;1.03;0.80;;;;;;;;;;5048460;28;20168;-67
2022/05/04 10:09:29;;;;;;;1.00;1.00;;;;;;;;;;5048663;28;20454;-67
2022/05/04 10:11:57;;;;;;;1.00;1.00;;;22.30;57.20;;;;;;5048875;28;20500;-67
2022/05/04 10:14:24;;;;;;;1.60;1.07;;;22.30;63.90;;;;;;5048927;28;20435;-67
2022/05/04 10:16:59;;;;;;;0.60;0.60;;;22.30;53.20;;;;;;5048624;28;20477;-67
2022/05/04 10:19:50;;;;;;;1.10;1.10;;;22.20;53.30;;;;;;5048818;28;20226;-66
2022/05/04 10:22:21;;;;;;;0.77;0.77;;;21.90;56.80;;;;;;5048738;28;20505;-66
2022/05/04 10:24:47;;;;;;;1.07;1.00;;;;;;;;;;5049821;28;20441;-67
2022/05/04 10:27:22;;;;;;;1.03;1.03;;;22.30;53.20;;;;;;5052102;28;20938;-67
2022/05/04 10:32:48;;;;;;;0.70;0.70;;;22.30;57.30;;;;;;5052220;28;20541;-67
2022/05/04 10:35:14;;;;;;;0.87;0.87;;;;;;;;;;5052175;28;20413;-67
2022/05/04 10:37:54;;;;;;;0.73;0.73;;;22.40;53.40;;;;;;5051841;28;20399;-67
2022/05/04 10:40:40;;;;;;;0.90;0.90;;;22.30;53.20;;;;;;5051920;28;20183;-67
2022/05/04 10:43:13;;;;;;;0.70;0.70;;;22.30;60.00;;;;;;5052144;28;20417;-67
2022/05/04 10:45:42;;;;;;;0.80;0.80;;;22.40;57.40;;;;;;5051829;28;20872;-66
2022/05/04 10:48:19;;;;;;;0.70;0.70;;;22.20;64.60;;;;;;5052081;28;20184;-66
2022/05/04 10:50:53;;;;;;;1.53;1.13;;;22.10;61.10;;;;;;5052014;28;20867;-66
2022/05/04 10:53:37;;;;;;;0.90;0.90;;;22.50;59.50;;;;;;5052021;28;20402;-67
2022/05/04 10:56:05;;;;;;;1.77;1.00;;;22.40;57.20;;;;;;5051697;28;20418;-67
2022/05/04 10:58:41;;;;;;;1.30;1.23;;;22.40;53.20;;;;;;5051629;28;20445;-67
2022/05/04 11:01:14;;;;;;;0.90;0.90;;;22.40;53.40;;;;;;5051681;28;20414;-67
2022/05/04 11:03:58;;;;;;;0.80;0.80;;;22.40;57.40;;;;;;5051824;28;20422;-66
2022/05/04 11:06:27;;;;;;;0.90;0.90;;;22.40;57.50;;;;;;5051357;28;20778;-67
2022/05/04 11:08:56;;;;;;;1.27;1.00;;;;;;;;;;5051365;28;20502;-66
2022/05/04 11:11:23;;;;;;;0.80;0.80;;;22.20;62.30;;;;;;5051432;28;20907;-67
2022/05/04 11:13:49;;;;;;;4.68;1.17;;;;;;;;;;5051370;28;20474;-67
2022/05/04 11:16:15;;;;;;;1.83;1.10;;;;;;;;;;5051335;28;20183;-67
2022/05/04 11:18:41;;;;;;;0.90;0.87;;;;;;;;;;5051391;28;20442;-68
2022/05/04 11:21:13;;;;;;;0.83;0.83;;;22.50;53.30;;;;;;5051406;28;20411;-68
2022/05/04 11:23:40;;;;;;;0.90;0.90;;;;;;;;;;5051632;28;20840;-67
2022/05/04 11:26:06;;;;;;;0.95;0.95;;;;;;;;;;5051252;28;20438;-66
2022/05/04 11:28:33;;;;;;;0.70;0.70;;;22.50;57.10;;;;;;5051204;28;20190;-67
2022/05/04 11:30:59;;;;;;;1.17;0.60;;;;;;;;;;5051179;28;20461;-67
2022/05/04 11:33:26;;;;;;;1.23;1.10;;;;;;;;;;5051052;28;20406;-67
2022/05/04 11:35:55;;;;;;;1.53;1.03;;;22.20;57.10;;;;;;5050393;28;20163;-67
2022/05/04 11:38:22;;;;;;;1.00;1.00;;;22.60;55.80;;;;;;5050904;28;20509;-67
2022/05/04 11:40:49;;;;;;;1.00;1.00;;;;;;;;;;5050688;28;20403;-67
2022/05/04 11:43:41;;;;;;;0.73;0.73;;;22.40;54.00;;;;;;5051264;28;20712;-67
2022/05/04 11:46:11;;;;;;;0.77;0.77;;;22.10;56.80;;;;;;5050276;28;20456;-66
2022/05/04 11:48:43;;;;;;;0.70;0.70;;;22.60;57.30;;;;;;5050705;28;20441;-66
2022/05/04 11:51:10;;;;;;;1.43;1.10;;;23.30;57.60;;;;;;5050733;28;20519;-67
2022/05/04 11:53:36;;;;;;;0.70;0.70;;;22.70;58.50;;;;;;5050753;28;20452;-67
2022/05/04 11:56:03;;;;;;;0.90;0.90;;;22.70;56.90;;;;;;5050623;28;20402;-67
2022/05/04 11:58:29;;;;;;;0.67;0.67;;;;;;;;;;5050640;28;20434;-67
2022/05/04 12:00:56;;;;;;;0.90;0.90;;;22.60;54.80;;;;;;5050658;28;20402;-67
2022/05/04 12:03:23;;;;;;;0.90;0.90;;;22.60;59.40;;;;;;5050535;28;20403;-67
2022/05/04 12:05:50;;;;;;;1.20;1.20;;;;;;;;;;5050190;28;20480;-67
2022/05/04 12:08:18;;;;;;;0.70;0.70;;;22.60;55.80;;;;;;5050473;28;20410;-67
2022/05/04 12:10:44;;;;;;;1.00;1.00;;;;;;;;;;5050311;28;20454;-67
2022/05/04 12:13:10;;;;;;;0.73;0.73;;;;;;;;;;5050349;28;20411;-67
2022/05/04 12:15:37;;;;;;;0.90;0.90;;;;;;;;;;5050242;28;20911;-67
2022/05/04 12:18:05;;;;;;;0.55;0.55;;;22.80;57.20;;;;;;5050103;28;20476;-67
2022/05/04 12:20:34;;;;;;;1.00;1.00;;;22.70;64.70;;;;;;5050150;28;20575;-67
2022/05/04 12:23:01;;;;;;;0.70;0.70;;;22.80;56.10;;;;;;5050229;28;20410;-67
2022/05/04 12:25:27;;;;;;;1.30;1.30;;;;;;;;;;5050415;28;20903;-67
2022/05/04 12:27:55;;;;;;;0.70;0.70;;;22.20;57.40;;;;;;5050148;28;20407;-66
2022/05/04 12:33:10;;;;;;;0.93;0.93;;;22.90;64.60;;;;;;5050164;28;20414;-67
2022/05/04 12:35:44;;;;;;;0.80;0.80;;;22.90;53.50;;;;;;5049811;28;20762;-66
2022/05/04 12:38:13;;;;;;;1.80;0.90;;;23.10;68.00;;;;;;5049129;28;20497;-67
2022/05/04 12:40:39;;;;;;;0.70;0.70;;;23.00;62.70;;;;;;5049162;28;20457;-66
2022/05/04 12:43:06;;;;;;;0.80;0.63;;;22.90;57.80;;;;;;5049699;28;20422;-67
2022/05/04 12:45:36;;;;;;;1.10;0.70;;;22.90;53.50;;;;;;5049494;28;20414;-67
2022/05/04 12:48:06;;;;;;;1.00;1.00;;;23.00;57.70;;;;;;5049099;28;20428;-67
2022/05/04 12:50:33;;;;;;;0.60;0.60;;;;;;;;;;5049731;28;20992;-66
2022/05/04 12:52:59;;;;;;;0.80;0.80;;;;;;;;;;5049638;28;20555;-67
2022/05/04 12:56:46;;;;;;;0.80;0.80;;;;;;;;;;5049875;28;20410;-67
2022/05/04 12:58:12;;;;;;;0.70;0.70;;;23.00;57.30;;;;;;5049411;28;20422;-68
2022/05/04 13:00:38;;;;;;;1.20;1.00;;;;;;;;;;5049698;28;20525;-67
2022/05/04 13:03:08;;;;;;;0.97;0.87;;;23.10;58.00;;;;;;5049521;28;20418;-67
2022/05/04 13:05:33;;;;;;;0.80;0.80;;;;;;;;;;5049250;28;20426;-67
2022/05/04 13:07:59;;;;;;;1.00;0.90;;;;;;;;;;5049426;28;20487;-67
2022/05/04 13:10:25;;;;;;;0.83;0.83;;;;;;;;;;5049200;28;20536;-68
2022/05/04 13:12:52;;;;;;;0.60;0.60;;;;;;;;;;5049402;28;20497;-67
2022/05/04 13:15:18;;;;;;;0.70;0.70;;;;;;;;;;5049415;28;20914;-67
2022/05/04 13:17:44;;;;;;;0.80;0.80;;;;;;;;;;5049261;28;20418;-67
2022/05/04 13:20:10;;;;;;;1.00;1.00;;;;;;;;;;5049484;28;20430;-67
2022/05/04 13:22:36;;;;;;;0.80;0.80;;;;;;;;;;5049317;28;20422;-67
2022/05/04 13:25:02;;;;;;;0.90;0.90;;;;;;;;;;5049349;28;20413;-67
2022/05/04 13:27:28;;;;;;;0.90;0.90;;;;;;;;;;5049193;28;20745;-67
2022/05/04 13:29:54;;;;;;;0.90;0.90;;;;;;;;;;5049224;28;20463;-67
2022/05/04 13:32:20;;;;;;;0.80;0.80;;;;;;;;;;5049438;28;20430;-67
2022/05/04 13:34:46;;;;;;;0.90;0.90;;;;;;;;;;5049132;28;20263;-67
2022/05/04 13:37:12;;;;;;;0.70;0.70;;;;;;;;;;5048965;28;20501;-67
2022/05/04 13:39:38;;;;;;;0.60;0.60;;;;;;;;;;5049179;28;20427;-67
2022/05/04 13:42:04;;;;;;;0.90;0.90;;;23.60;55.50;;;;;;5049109;28;20407;-67
2022/05/04 13:44:30;;;;;;;1.00;0.90;;;;;;;;;;5049036;28;20270;-67
2022/05/04 13:46:56;;;;;;;1.07;1.07;;;;;;;;;;5048897;28;20287;-68
2022/05/04 13:49:22;;;;;;;0.67;0.67;;;;;;;;;;5049123;28;20922;-67
2022/05/04 13:54:33;;;;;;;0.75;0.75;;;;;;;;;;5049303;28;20416;-67
2022/05/04 13:56:59;;;;;;;0.90;0.90;;;;;;;;;;5048783;28;20261;-67
2022/05/04 13:59:26;;;;;;;0.90;0.90;;;23.50;63.20;;;;;;5050961;28;20204;-67
2022/05/04 14:01:52;;;;;;;0.80;0.80;;;;;;;;;;5052926;28;20415;-67
2022/05/04 14:04:18;;;;;;;0.70;0.70;;;;;;;;;;5052836;28;20436;-67
2022/05/04 14:06:44;;;;;;;0.60;0.60;;;;;;;;;;5052421;28;21115;-67
2022/05/04 14:09:10;;;;;;;0.80;0.80;;;;;;;;;;5051151;28;20597;-67
2022/05/04 14:11:36;;;;;;;0.97;0.93;;;;;;;;;;5052764;28;20411;-68
2022/05/04 14:16:46;;;;;;;0.97;0.97;;;;;;;;;;5052444;28;20205;-67
2022/05/04 14:19:12;;;;;;;0.90;0.90;;;;;;;;;;5052293;28;20446;-67
2022/05/04 14:21:38;;;;;;;0.80;0.80;;;;;;;;;;5052405;28;20471;-67
2022/05/04 14:24:04;;;;;;;0.90;0.90;;;23.40;56.10;;;;;;5052527;28;20445;-68
2022/05/04 14:26:32;;;;;;;0.73;0.73;;;23.70;71.60;;;;;;5052357;28;20191;-67
2022/05/04 14:28:59;;;;;;;1.40;1.30;;;;;;;;;;5052313;28;21086;-67
2022/05/04 14:31:25;;;;;;;0.70;0.70;;;;;;;;;;5052404;28;20390;-67
2022/05/04 14:33:51;;;;;;;0.80;0.80;;;;;;;;;;5052211;28;20442;-66
2022/05/04 14:36:17;;;;;;;1.00;1.00;;;;;;;;;;5051915;28;20570;-67
2022/05/04 14:38:43;;;;;;;0.90;0.80;;;;;;;;;;5052175;28;20444;-67
2022/05/04 14:41:09;;;;;;;0.80;0.80;;;;;;;;;;5051953;28;20414;-67